Atomic City, Idaho
Current Conditions -  °F | °C
As of 12:53 AM on Sunday 23 Nov 2014 (Local Time) from KIDA Reporting Station
Overcast Overcast  
Wind Chill: 23°   Ceiling: 9000
Heat Index: 33°   Visibility: 10mi
Dew Point: 30°   Wind: 16mph
Humidity: 89%   Direction: 210°SSW
Pressure: 29.84"   Gusts: NA
Location:  43.44°N, 112.81°W
Report Text: KIDA 230753Z AUTO 21014KT 10SM FEW009 SCT065 OVC090 01/M01 A2984 RMK AO2 SLP114 T00061011
Loading
Personal Weather Stations






























Interactive Weather Map New forecast layout! Learn more

10-Day Weather Forecast

Advertisements
Track Severe Weather on mobile